Time;durP1;ratioP1;P1;durP2;ratioP2;P2;SDS_P1;SDS_P2;PMS_P1;PMS_P2;Temp;Humidity;BMP_temperature;BMP_pressure;BME280_temperature;BME280_humidity;BME280_pressure;Samples;Min_cycle;Max_cycle;Signal;HPM_P1;HPM_P2
2023/05/14 00:00:22;;;;;;;0.30;0.30;;;;;;;14.93;36.86;101398.06;5067512;28;20033;-59
2023/05/14 00:02:48;;;;;;;0.30;0.30;;;;;;;14.98;36.48;101407.56;5066543;28;20390;-59
2023/05/14 00:05:13;;;;;;;0.30;0.30;;;;;;;15.02;36.25;101399.69;5067572;28;20021;-58
2023/05/14 00:07:39;;;;;;;0.30;0.30;;;;;;;15.02;36.25;101399.69;5067506;28;20033;-59
2023/05/14 00:10:05;;;;;;;1.17;1.13;;;;;;;15.07;35.92;101395.28;5067940;28;20013;-58
2023/05/14 00:12:31;;;;;;;0.57;0.57;;;;;;;15.10;35.83;101403.09;5067616;28;20461;-57
2023/05/14 00:14:56;;;;;;;0.30;0.30;;;;;;;15.04;35.87;101390.97;5067363;28;20028;-60
2023/05/14 00:17:22;;;;;;;0.20;0.20;;;;;;;15.02;35.54;101377.03;5067347;28;20036;-58
2023/05/14 00:19:47;;;;;;;0.22;0.22;;;;;;;15.07;35.62;101396.16;5067360;28;20024;-59
2023/05/14 00:22:13;;;;;;;0.20;0.20;;;;;;;15.06;35.70;101383.97;5067267;28;20017;-59
2023/05/14 00:24:38;;;;;;;0.35;0.35;;;;;;;15.02;35.80;101392.72;5066905;28;20059;-59
2023/05/14 00:27:05;;;;;;;0.30;0.30;;;;;;;15.10;35.47;101388.28;5067224;28;20025;-59
2023/05/14 00:29:30;;;;;;;0.30;0.30;;;;;;;15.03;35.65;101381.38;5067056;28;20021;-57
2023/05/14 00:31:56;;;;;;;0.40;0.40;;;;;;;15.02;35.61;101384.00;5067366;28;20024;-57
2023/05/14 00:34:21;;;;;;;0.30;0.30;;;;;;;14.97;35.74;101374.47;5066365;28;20041;-59
2023/05/14 00:36:47;;;;;;;3.70;2.15;;;;;;;14.92;35.77;101378.88;5067183;28;20035;-63
2023/05/14 00:39:12;;;;;;;0.28;0.28;;;;;;;14.93;36.03;101380.63;5067317;28;20032;-60
2023/05/14 00:41:38;;;;;;;0.30;0.30;;;;;;;14.93;35.98;101383.25;5067004;28;20029;-60
2023/05/14 00:44:04;;;;;;;3.85;2.17;;;;;;;14.97;36.20;101374.47;5066959;28;20112;-58
2023/05/14 00:46:29;;;;;;;0.20;0.20;;;;;;;15.07;36.23;101369.13;5066973;28;20036;-59
2023/05/14 00:48:56;;;;;;;0.20;0.20;;;;;;;14.87;36.32;101362.41;5067006;28;20024;-58
2023/05/14 00:51:21;;;;;;;0.20;0.20;;;;;;;14.82;36.56;101374.66;5066903;28;20029;-58
2023/05/14 00:53:47;;;;;;;0.20;0.20;;;;;;;14.70;36.65;101366.00;5066776;28;20035;-59
2023/05/14 00:56:14;;;;;;;0.70;0.70;;;;;;;14.70;36.57;101378.22;5066582;28;20443;-58
2023/05/14 00:58:40;;;;;;;0.30;0.30;;;;;;;14.70;36.58;101370.38;5066622;28;20341;-59
2023/05/14 01:01:05;;;;;;;0.82;0.82;;;;;;;14.70;36.50;101375.59;5066881;28;20511;-58
2023/05/14 01:03:32;;;;;;;0.30;0.30;;;;;;;14.66;36.61;101369.56;5066507;28;20025;-60
2023/05/14 01:06:18;;;;;;;0.20;0.20;;;;;;;14.63;36.74;101364.34;5066825;28;20021;-58
2023/05/14 01:09:13;;;;;;;0.30;0.30;;;;;;;14.62;36.71;101367.84;5066587;28;20025;-59
2023/05/14 01:12:34;;;;;;;0.30;0.30;;;;;;;14.58;36.90;101367.03;5066463;28;20017;-59
2023/05/14 01:15:33;;;;;;;0.22;0.22;;;;;;;14.62;36.69;101362.59;5024148;28;20243;-58
2023/05/14 01:18:03;;;;;;;0.50;0.50;;;;;;;14.49;36.70;101346.19;5013524;28;20033;-55
2023/05/14 01:20:28;;;;;;;0.30;0.30;;;;;;;14.55;36.64;101361.81;5024392;28;20032;-58
2023/05/14 01:22:53;;;;;;;0.30;0.30;;;;;;;14.54;36.52;101361.81;5024004;28;20062;-57
2023/05/14 01:25:19;;;;;;;0.30;0.30;;;;;;;14.53;36.57;101357.47;5024148;28;20025;-57
2023/05/14 01:27:59;;;;;;;0.55;0.55;;;;;;;14.57;36.40;101357.44;5024122;28;20098;-57
2023/05/14 01:30:36;;;;;;;0.30;0.30;;;;;;;14.67;36.32;101362.56;5023958;28;20038;-58
2023/05/14 01:33:12;;;;;;;0.30;0.30;;;;;;;14.68;36.13;101362.53;5024171;28;20195;-58
2023/05/14 01:35:38;;;;;;;0.40;0.40;;;;;;;14.62;36.25;101357.38;5023077;28;20048;-58
2023/05/14 01:38:08;;;;;;;0.38;0.38;;;;;;;14.59;36.25;101354.81;5023691;28;20033;-57
2023/05/14 01:40:35;;;;;;;0.30;0.30;;;;;;;14.65;36.02;101356.50;5024152;28;20026;-58
2023/05/14 01:43:02;;;;;;;0.30;0.30;;;;;;;14.56;36.10;101353.09;5023476;28;20040;-58
2023/05/14 01:45:29;;;;;;;0.30;0.30;;;;;;;14.61;36.18;101347.81;5023298;28;20026;-58
2023/05/14 01:47:54;;;;;;;0.30;0.30;;;;;;;14.58;36.13;101353.97;5026265;28;20089;-56
2023/05/14 01:50:20;;;;;;;0.25;0.25;;;;;;;14.59;36.41;101352.19;5065783;28;20024;-56
2023/05/14 01:52:47;;;;;;;1.48;1.48;;;;;;;14.58;36.09;101350.47;5065589;28;20025;-55
2023/05/14 01:55:12;;;;;;;0.38;0.38;;;;;;;14.62;35.94;101346.94;5065802;28;20025;-54
2023/05/14 01:57:38;;;;;;;0.30;0.30;;;;;;;14.63;35.93;101343.44;5065608;28;20052;-59
2023/05/14 02:00:04;;;;;;;0.22;0.22;;;;;;;14.53;36.12;101347.03;5065365;28;20066;-54
2023/05/14 02:02:30;;;;;;;0.30;0.30;;;;;;;14.52;36.20;101350.53;5065574;28;20032;-55
2023/05/14 02:04:55;;;;;;;0.30;0.30;;;;;;;14.50;36.11;101340.94;5065500;28;20036;-57
2023/05/14 02:07:20;;;;;;;0.30;0.30;;;;;;;14.50;36.20;101354.00;5065450;28;20088;-55
2023/05/14 02:09:46;;;;;;;0.30;0.30;;;;;;;14.52;36.21;101338.31;5065711;28;20017;-57
2023/05/14 02:12:11;;;;;;;0.30;0.30;;;;;;;14.44;36.29;101342.78;5065089;28;20047;-58
2023/05/14 02:14:37;;;;;;;0.30;0.30;;;;;;;14.47;36.22;101347.97;5065071;28;20017;-58
2023/05/14 02:17:02;;;;;;;11.50;3.05;;;;;;;14.33;36.38;101338.50;5065208;28;20052;-57
2023/05/14 02:19:29;;;;;;;1.30;1.20;;;;;;;14.41;36.46;101350.63;5065337;28;20059;-57
2023/05/14 02:21:54;;;;;;;0.30;0.30;;;;;;;14.44;36.46;101346.22;5065348;28;20025;-57
2023/05/14 02:24:20;;;;;;;0.32;0.32;;;;;;;14.45;36.51;101342.75;5065311;28;20031;-58
2023/05/14 02:26:45;;;;;;;0.30;0.30;;;;;;;14.40;36.81;101343.66;5065067;28;20074;-56
2023/05/14 02:29:11;;;;;;;0.30;0.30;;;;;;;14.27;37.07;101346.38;5065103;28;20025;-56
2023/05/14 02:31:36;;;;;;;0.30;0.30;;;;;;;14.25;37.14;101346.41;5065142;28;20029;-57
2023/05/14 02:34:03;;;;;;;0.30;0.30;;;;;;;14.25;37.12;101337.69;5064674;28;20048;-56
2023/05/14 02:36:28;;;;;;;0.28;0.28;;;;;;;14.30;37.37;101338.53;5065180;28;20017;-56
2023/05/14 02:38:54;;;;;;;0.40;0.40;;;;;;;14.31;37.05;101337.66;5065106;28;20067;-56
2023/05/14 02:41:20;;;;;;;0.30;0.30;;;;;;;14.13;37.23;101323.88;5065190;28;20052;-57
2023/05/14 02:43:45;;;;;;;0.30;0.30;;;;;;;14.13;37.47;101334.34;5064823;28;20052;-56
2023/05/14 02:46:11;;;;;;;0.52;0.52;;;;;;;14.21;37.25;101331.66;5063444;28;20081;-56
2023/05/14 02:48:36;;;;;;;0.30;0.30;;;;;;;14.25;37.14;101328.13;5064998;28;20021;-57
2023/05/14 02:51:01;;;;;;;0.35;0.35;;;;;;;14.16;37.18;101337.78;5064983;28;20026;-56
2023/05/14 02:53:27;;;;;;;0.43;0.43;;;;;;;14.23;37.04;101313.34;5064909;28;20021;-58
2023/05/14 02:55:52;;;;;;;0.30;0.30;;;;;;;14.31;37.13;101329.81;5064661;28;20021;-55
2023/05/14 02:58:18;;;;;;;0.30;0.30;;;;;;;14.26;37.26;101326.38;5064499;28;20028;-58
2023/05/14 03:00:43;;;;;;;2.17;1.33;;;;;;;14.35;37.11;101325.41;5064861;28;20029;-57
2023/05/14 03:03:09;;;;;;;0.30;0.30;;;;;;;14.31;37.13;101321.13;5064865;28;20075;-57
2023/05/14 03:05:34;;;;;;;0.30;0.30;;;;;;;14.20;37.40;101318.59;5064781;28;20083;-56
2023/05/14 03:08:00;;;;;;;0.30;0.30;;;;;;;14.30;37.18;101317.63;5064816;28;20025;-57
2023/05/14 03:10:25;;;;;;;0.50;0.50;;;;;;;14.31;37.34;101316.78;5064857;28;20469;-55
2023/05/14 03:12:50;;;;;;;0.30;0.30;;;;;;;14.31;37.33;101321.13;5064497;28;20032;-57
2023/05/14 03:15:16;;;;;;;0.30;0.30;;;;;;;14.40;37.26;101309.69;5064466;28;20021;-58
2023/05/14 03:17:41;;;;;;;0.85;0.85;;;;;;;14.57;37.04;101314.78;5064463;28;20177;-56
2023/05/14 03:20:07;;;;;;;0.30;0.30;;;;;;;14.66;36.61;101317.28;5064676;28;20035;-57
2023/05/14 03:22:33;;;;;;;0.38;0.38;;;;;;;14.67;36.83;101312.91;5064661;28;20147;-55
2023/05/14 03:24:58;;;;;;;0.30;0.30;;;;;;;14.78;36.46;101315.38;5064771;28;20017;-56
2023/05/14 03:27:23;;;;;;;0.25;0.25;;;;;;;14.75;36.70;101311.94;5063210;28;20418;-57
2023/05/14 03:29:49;;;;;;;0.68;0.68;;;;;;;14.82;36.50;101302.31;5064498;28;20028;-56
2023/05/14 03:32:16;;;;;;;0.30;0.30;;;;;;;15.14;36.00;101325.47;5064613;28;20088;-55
2023/05/14 03:34:43;;;;;;;0.32;0.32;;;;;;;15.27;35.38;101311.31;5064315;28;20048;-57
2023/05/14 03:37:09;;;;;;;0.82;0.82;;;;;;;15.15;35.94;101314.13;5064487;28;20021;-58
2023/05/14 03:39:35;;;;;;;0.30;0.30;;;;;;;15.29;35.59;101304.34;5064733;28;20032;-56
2023/05/14 03:42:00;;;;;;;0.30;0.30;;;;;;;15.37;35.49;101309.47;5064672;28;20195;-56
2023/05/14 03:44:25;;;;;;;0.30;0.30;;;;;;;15.34;35.30;101305.16;5064214;28;20104;-57
2023/05/14 03:46:51;;;;;;;0.30;0.30;;;;;;;15.17;35.70;101312.34;5064411;28;20021;-55
2023/05/14 03:49:16;;;;;;;0.30;0.30;;;;;;;14.97;36.07;101305.63;5064592;28;20116;-57
2023/05/14 03:51:42;;;;;;;0.40;0.40;;;;;;;14.82;36.39;101302.31;5064265;28;20036;-57
2023/05/14 03:54:09;;;;;;;0.30;0.30;;;;;;;14.60;37.09;101305.13;5064510;28;20037;-56
2023/05/14 03:56:34;;;;;;;0.30;0.30;;;;;;;14.60;37.03;101296.44;5064288;28;20128;-55
2023/05/14 03:59:00;;;;;;;0.30;0.30;;;;;;;14.52;37.26;101288.66;5066356;28;20465;-58
2023/05/14 04:01:25;;;;;;;0.30;0.30;;;;;;;14.45;37.18;101284.41;5067870;28;20032;-58
2023/05/14 04:03:50;;;;;;;0.30;0.30;;;;;;;14.55;37.38;101286.06;5067780;28;20025;-55
2023/05/14 04:06:16;;;;;;;0.65;0.65;;;;;;;14.79;37.00;101284.03;5067715;28;20036;-58
2023/05/14 04:08:41;;;;;;;0.30;0.30;;;;;;;15.10;36.57;101280.19;5067843;28;20029;-58
2023/05/14 04:11:07;;;;;;;0.30;0.30;;;;;;;15.38;35.94;101273.72;5067701;28;20031;-56
2023/05/14 04:13:32;;;;;;;0.30;0.30;;;;;;;15.78;34.79;101278.34;5067535;28;20049;-55
2023/05/14 04:15:57;;;;;;;0.30;0.30;;;;;;;15.81;34.88;101273.03;5067739;28;20048;-54
2023/05/14 04:18:23;;;;;;;0.40;0.40;;;;;;;15.96;34.93;101257.94;5067545;28;20100;-57
2023/05/14 04:20:48;;;;;;;0.80;0.68;;;;;;;16.47;33.93;101264.03;5067623;28;20115;-56
2023/05/14 04:23:14;;;;;;;6.53;1.95;;;;;;;16.72;33.02;101269.66;5067351;28;20398;-56
2023/05/14 04:25:39;;;;;;;0.30;0.30;;;;;;;16.82;32.92;101266.88;5067420;28;20039;-59
2023/05/14 04:28:04;;;;;;;0.47;0.47;;;;;;;16.71;33.43;101267.94;5067392;28;20048;-57
2023/05/14 04:30:30;;;;;;;0.47;0.47;;;;;;;16.86;33.33;101263.28;5067252;28;20060;-59
2023/05/14 04:32:55;;;;;;;0.20;0.20;;;;;;;17.22;33.48;101265.16;5067235;28;20499;-58
2023/05/14 04:35:21;;;;;;;0.20;0.20;;;;;;;17.75;33.15;101266.53;5067366;28;20025;-57
2023/05/14 04:37:47;;;;;;;0.30;0.30;;;;;;;18.18;32.09;101261.09;5067356;28;20020;-59
2023/05/14 04:40:15;;;;;;;0.30;0.30;;;;;;;18.43;31.15;101256.06;5067042;28;20549;-55
2023/05/14 04:42:41;;;;;;;0.25;0.25;;;;;;;18.56;31.32;101256.56;5067119;28;20029;-59
2023/05/14 04:45:07;;;;;;;0.30;0.30;;;;;;;18.82;30.70;101252.31;5066908;28;20107;-54
2023/05/14 04:47:33;;;;;;;0.20;0.20;;;;;;;19.12;29.67;101256.72;5067046;28;20025;-57
2023/05/14 04:49:58;;;;;;;0.20;0.20;;;;;;;19.27;30.07;101260.66;5067082;28;20027;-58
2023/05/14 04:52:25;;;;;;;0.50;0.50;;;;;;;19.44;28.72;101246.09;5066884;28;20051;-56
2023/05/14 04:54:50;;;;;;;0.30;0.30;;;;;;;19.40;29.03;101255.84;5066939;28;20024;-57
2023/05/14 04:57:16;;;;;;;0.22;0.22;;;;;;;19.65;28.62;101254.22;5067141;28;20098;-60
2023/05/14 04:59:41;;;;;;;0.20;0.20;;;;;;;19.68;28.79;101256.75;5066625;28;20025;-57
2023/05/14 05:02:07;;;;;;;0.65;0.65;;;;;;;19.96;28.05;101249.66;5066734;28;20067;-55
2023/05/14 05:04:32;;;;;;;0.20;0.20;;;;;;;19.85;28.51;101255.28;5066656;28;20075;-58
2023/05/14 05:06:57;;;;;;;0.20;0.20;;;;;;;19.86;28.74;101260.50;5066486;28;20016;-56
2023/05/14 05:09:23;;;;;;;0.73;0.73;;;;;;;19.95;28.80;101254.09;5066621;28;20067;-58
2023/05/14 05:11:48;;;;;;;0.20;0.20;;;;;;;19.92;28.68;101259.44;5066622;28;20032;-54
2023/05/14 05:14:14;;;;;;;0.20;0.20;;;;;;;19.77;28.35;101245.00;5066403;28;20485;-58
2023/05/14 05:16:39;;;;;;;0.20;0.20;;;;;;;19.87;27.94;101261.38;5066641;28;20035;-57
2023/05/14 05:19:04;;;;;;;1.70;0.77;;;;;;;19.74;27.58;101255.66;5066553;28;20028;-56
2023/05/14 05:21:30;;;;;;;0.20;0.20;;;;;;;19.36;28.51;101258.63;5065158;28;20025;-58
2023/05/14 05:23:56;;;;;;;0.20;0.20;;;;;;;19.38;28.85;101254.16;5066429;28;20029;-59
2023/05/14 05:26:21;;;;;;;0.30;0.30;;;;;;;19.47;28.88;101255.66;5066092;28;20021;-58
2023/05/14 05:28:47;;;;;;;0.30;0.30;;;;;;;19.68;28.47;101254.09;5066010;28;20071;-61
2023/05/14 05:31:12;;;;;;;0.20;0.20;;;;;;;19.77;28.62;101261.69;5066229;28;20025;-57
2023/05/14 05:33:38;;;;;;;0.20;0.20;;;;;;;20.01;28.00;101251.22;5066145;28;20045;-58
2023/05/14 05:36:04;;;;;;;0.20;0.20;;;;;;;20.15;28.15;101248.13;5065910;28;20025;-57
2023/05/14 05:38:29;;;;;;;0.40;0.40;;;;;;;20.33;28.16;101253.66;5065938;28;20054;-57
2023/05/14 05:40:55;;;;;;;0.75;0.75;;;;;;;20.54;27.90;101240.59;5066224;28;20059;-57
2023/05/14 05:43:20;;;;;;;0.20;0.20;;;;;;;20.75;27.22;101236.28;5065898;28;20089;-57
2023/05/14 05:45:45;;;;;;;0.40;0.40;;;;;;;20.81;26.26;101236.03;5065761;28;20040;-58
2023/05/14 05:48:11;;;;;;;0.30;0.30;;;;;;;20.78;26.16;101237.97;5065816;28;20028;-57
2023/05/14 05:50:36;;;;;;;0.20;0.20;;;;;;;20.66;25.28;101231.34;5065733;28;20080;-58
2023/05/14 05:53:02;;;;;;;0.20;0.20;;;;;;;19.86;26.65;101238.56;5065800;28;20025;-58
2023/05/14 05:55:28;;;;;;;0.43;0.43;;;;;;;19.76;26.40;101228.34;5065774;28;20017;-56
2023/05/14 05:57:54;;;;;;;0.20;0.20;;;;;;;19.31;27.75;101243.00;5065462;28;20493;-57
2023/05/14 06:00:19;;;;;;;0.20;0.20;;;;;;;19.95;26.53;101222.47;5065172;28;20047;-55
2023/05/14 06:02:45;;;;;;;0.30;0.30;;;;;;;19.98;26.77;101240.78;5065665;28;20025;-56
2023/05/14 06:05:11;;;;;;;0.20;0.20;;;;;;;20.19;26.96;101227.81;5065728;28;20080;-57
2023/05/14 06:07:37;;;;;;;0.68;0.50;;;;;;;20.62;26.11;101230.63;5065492;28;20050;-57
2023/05/14 06:10:03;;;;;;;0.30;0.30;;;;;;;20.86;26.12;101232.38;5065429;28;20029;-54
2023/05/14 06:12:28;;;;;;;0.20;0.20;;;;;;;21.12;25.40;101225.25;5065484;28;20028;-57
2023/05/14 06:14:56;;;;;;;0.20;0.20;;;;;;;20.60;26.44;101214.00;5065265;28;20044;-55
2023/05/14 06:17:24;;;;;;;0.28;0.28;;;;;;;20.91;26.38;101215.47;5065412;28;20048;-58
2023/05/14 06:19:51;;;;;;;0.20;0.20;;;;;;;21.24;25.48;101218.59;5065434;28;20044;-56
2023/05/14 06:22:16;;;;;;;0.30;0.30;;;;;;;20.89;26.19;101219.06;5064733;28;20114;-58
2023/05/14 06:24:42;;;;;;;0.20;0.20;;;;;;;20.95;26.83;101216.22;5065288;28;20092;-58
2023/05/14 06:27:07;;;;;;;0.20;0.20;;;;;;;21.19;26.18;101216.16;5065109;28;20024;-56
2023/05/14 06:29:33;;;;;;;0.82;0.82;;;;;;;20.87;26.30;101216.50;5063772;28;20027;-58
2023/05/14 06:32:02;;;;;;;0.20;0.20;;;;;;;20.63;26.57;101220.94;5065168;28;20036;-57
2023/05/14 06:34:28;;;;;;;0.88;0.88;;;;;;;20.35;27.08;101212.25;5064675;28;20110;-57
2023/05/14 06:36:53;;;;;;;0.25;0.25;;;;;;;19.69;27.97;101222.44;5065014;28;20025;-58
2023/05/14 06:39:19;;;;;;;0.40;0.40;;;;;;;19.51;28.63;101221.28;5064968;28;20089;-58
2023/05/14 06:41:44;;;;;;;0.20;0.20;;;;;;;19.52;29.34;101224.78;5064933;28;20029;-60
2023/05/14 06:44:10;;;;;;;0.20;0.20;;;;;;;19.76;29.30;101230.13;5064380;28;20043;-54
2023/05/14 06:46:35;;;;;;;0.47;0.47;;;;;;;19.94;28.81;101225.97;5064830;28;20021;-52
2023/05/14 06:49:01;;;;;;;0.20;0.20;;;;;;;19.41;29.33;101225.97;5065057;28;20135;-50
2023/05/14 06:51:26;;;;;;;0.50;0.50;;;;;;;19.13;29.91;101223.38;5064804;28;20017;-49
2023/05/14 06:53:53;;;;;;;0.30;0.30;;;;;;;18.93;30.22;101227.47;5064858;28;20031;-53
2023/05/14 06:56:20;;;;;;;1.20;1.10;;;;;;;18.95;30.46;101217.72;5064709;28;20020;-56
2023/05/14 06:58:46;;;;;;;0.20;0.20;;;;;;;19.25;30.10;101222.13;5064323;28;20453;-56
2023/05/14 07:01:11;;;;;;;0.57;0.57;;;;;;;19.16;30.13;101223.28;5064840;28;20024;-55
2023/05/14 07:03:37;;;;;;;0.30;0.30;;;;;;;18.70;30.89;101227.25;5064666;28;20028;-55
2023/05/14 07:06:02;;;;;;;0.43;0.43;;;;;;;18.83;30.59;101216.34;5064732;28;20028;-55
2023/05/14 07:08:27;;;;;;;0.20;0.20;;;;;;;18.65;30.90;101231.78;5064766;28;20124;-55
2023/05/14 07:10:53;;;;;;;0.20;0.20;;;;;;;18.64;30.72;101224.78;5064653;28;20043;-57
2023/05/14 07:13:18;;;;;;;0.30;0.30;;;;;;;18.60;31.05;101224.91;5064608;28;20021;-52
2023/05/14 07:15:44;;;;;;;0.20;0.20;;;;;;;18.48;31.47;101221.75;5064370;28;20021;-55
2023/05/14 07:18:09;;;;;;;0.20;0.20;;;;;;;18.73;31.09;101218.41;5064686;28;20036;-53
2023/05/14 07:20:35;;;;;;;0.28;0.28;;;;;;;18.77;30.89;101214.75;5064734;28;20135;-53
2023/05/14 07:23:00;;;;;;;0.35;0.35;;;;;;;18.44;31.24;101210.47;5064524;28;20056;-53
2023/05/14 07:25:26;;;;;;;0.20;0.20;;;;;;;18.25;31.54;101214.50;5064604;28;20020;-52
2023/05/14 07:27:51;;;;;;;0.20;0.20;;;;;;;18.02;32.17;101213.34;5064306;28;20037;-54
2023/05/14 07:30:17;;;;;;;0.30;0.30;;;;;;;18.17;32.34;101215.59;5064206;28;20025;-54
2023/05/14 07:32:42;;;;;;;0.52;0.52;;;;;;;18.51;32.31;101216.41;5064618;28;20115;-55
2023/05/14 07:35:08;;;;;;;0.28;0.28;;;;;;;19.06;31.79;101223.53;5068338;28;20044;-53
2023/05/14 07:37:33;;;;;;;0.20;0.20;;;;;;;19.39;30.91;101224.31;5068105;28;20025;-56
2023/05/14 07:39:59;;;;;;;0.20;0.20;;;;;;;19.42;30.47;101235.63;5066728;28;20382;-55
2023/05/14 07:42:25;;;;;;;0.20;0.20;;;;;;;19.39;30.44;101229.59;5068281;28;20021;-54
2023/05/14 07:44:51;;;;;;;0.20;0.20;;;;;;;19.45;30.70;101218.84;5068094;28;20025;-61
2023/05/14 07:47:16;;;;;;;0.28;0.28;;;;;;;19.42;30.59;101226.84;5067865;28;20081;-55
2023/05/14 07:49:42;;;;;;;0.50;0.50;;;;;;;19.05;30.83;101213.94;5067874;28;20025;-53
2023/05/14 07:52:07;;;;;;;0.20;0.20;;;;;;;19.16;30.99;101223.28;5067813;28;20063;-54
2023/05/14 07:54:33;;;;;;;0.20;0.20;;;;;;;19.31;31.50;101227.19;5067759;28;20044;-53
2023/05/14 07:56:58;;;;;;;0.20;0.20;;;;;;;19.53;30.89;101230.00;5067698;28;20085;-59
2023/05/14 07:59:24;;;;;;;0.25;0.25;;;;;;;19.53;30.52;101232.63;5067586;28;20029;-56
2023/05/14 08:01:50;;;;;;;0.20;0.20;;;;;;;19.32;31.11;101237.69;5067860;28;20035;-56
2023/05/14 08:04:15;;;;;;;0.20;0.20;;;;;;;19.20;31.17;101223.13;5067417;28;20013;-54
2023/05/14 08:06:41;;;;;;;0.32;0.32;;;;;;;19.19;31.48;101223.16;5067852;28;20037;-54
2023/05/14 08:09:07;;;;;;;0.68;0.68;;;;;;;19.26;31.75;101219.44;5067940;28;20150;-56
2023/05/14 08:11:33;;;;;;;0.20;0.20;;;;;;;19.54;31.57;101213.28;5067505;28;20032;-55
2023/05/14 08:13:58;;;;;;;0.20;0.20;;;;;;;19.74;31.02;101208.25;5067335;28;20107;-57
2023/05/14 08:16:25;;;;;;;0.20;0.20;;;;;;;19.69;31.00;101209.28;5067450;28;20020;-56
2023/05/14 08:18:50;;;;;;;0.47;0.47;;;;;;;19.91;30.97;101215.56;5067366;28;20037;-56
2023/05/14 08:21:16;;;;;;;0.20;0.20;;;;;;;20.09;30.43;101218.50;5067487;28;20417;-55
2023/05/14 08:23:41;;;;;;;0.55;0.47;;;;;;;19.92;30.61;101210.22;5067288;28;20025;-56
2023/05/14 08:26:07;;;;;;;0.20;0.20;;;;;;;19.89;30.89;101202.44;5067385;28;20082;-57
2023/05/14 08:28:32;;;;;;;0.85;0.85;;;;;;;19.65;30.75;101191.00;5067304;28;20021;-56
2023/05/14 08:30:58;;;;;;;0.95;0.88;;;;;;;19.64;31.34;101186.63;5067133;28;20100;-54
2023/05/14 08:33:23;;;;;;;0.20;0.20;;;;;;;20.43;30.87;101186.47;5066754;28;20092;-55
2023/05/14 08:35:51;;;;;;;0.60;0.60;;;;;;;21.30;29.38;101184.91;5067061;28;20025;-55
2023/05/14 08:38:17;;;;;;;0.20;0.20;;;;;;;22.07;29.16;101170.25;5066875;28;20083;-59
2023/05/14 08:40:47;;;;;;;5.47;1.10;;;;;;;22.83;28.66;101169.41;5066937;28;20032;-59
2023/05/14 08:43:18;;;;;;;0.20;0.20;;;;;;;22.83;28.04;101169.41;5066888;28;20044;-57
2023/05/14 08:45:45;;;;;;;1.20;1.20;;;;;;;22.63;27.71;101167.72;5066498;28;20025;-58
2023/05/14 08:48:16;;;;;;;0.52;0.52;;;;;;;22.19;28.24;101167.03;5066959;28;20051;-59
2023/05/14 08:50:42;;;;;;;0.20;0.20;;;;;;;22.37;28.71;101169.78;5066784;28;20032;-59
2023/05/14 08:53:08;;;;;;;0.20;0.20;;;;;;;22.95;27.60;101175.91;5066634;28;20025;-59
2023/05/14 08:55:35;;;;;;;0.32;0.32;;;;;;;23.32;27.67;101175.03;5066512;28;20131;-59
2023/05/14 08:58:00;;;;;;;0.30;0.30;;;;;;;23.33;27.17;101171.44;5066361;28;20021;-60
2023/05/14 09:00:25;;;;;;;0.20;0.20;;;;;;;23.11;27.46;101173.38;5066506;28;20033;-60
2023/05/14 09:02:51;;;;;;;0.20;0.20;;;;;;;22.86;27.45;101177.22;5066596;28;20029;-59
2023/05/14 09:05:18;;;;;;;0.20;0.20;;;;;;;22.80;27.56;101168.69;5066558;28;20017;-60
2023/05/14 09:07:43;;;;;;;0.20;0.20;;;;;;;22.67;27.65;101173.75;5066532;28;20021;-59
2023/05/14 09:10:10;;;;;;;0.20;0.20;;;;;;;22.29;27.84;101171.00;5066396;28;20049;-60
2023/05/14 09:12:35;;;;;;;0.20;0.20;;;;;;;22.04;27.72;101171.25;5066493;28;20025;-60
2023/05/14 09:15:01;;;;;;;0.20;0.20;;;;;;;21.47;28.29;101172.75;5066191;28;20032;-61
2023/05/14 09:17:26;;;;;;;0.22;0.22;;;;;;;21.46;29.03;101172.81;5066288;28;20029;-58
2023/05/14 09:19:52;;;;;;;0.20;0.20;;;;;;;21.65;29.22;101170.25;5066569;28;20025;-58
2023/05/14 09:22:19;;;;;;;0.20;0.20;;;;;;;21.79;28.52;101175.84;5066300;28;20025;-60
2023/05/14 09:24:45;;;;;;;0.20;0.20;;;;;;;21.36;29.26;101180.28;5066268;28;20031;-57
2023/05/14 09:27:20;;;;;;;0.20;0.20;;;;;;;21.01;29.60;101173.75;5066349;28;20108;-59
2023/05/14 09:29:46;;;;;;;0.20;0.20;;;;;;;21.39;29.70;101188.09;5066100;28;20063;-59
2023/05/14 09:32:12;;;;;;;0.50;0.50;;;;;;;21.29;29.82;101184.97;5066048;28;20230;-59
2023/05/14 09:34:38;;;;;;;0.20;0.20;;;;;;;21.17;30.41;101183.66;5065626;28;20125;-59
2023/05/14 09:37:06;;;;;;;0.20;0.20;;;;;;;20.94;30.42;101180.19;5066010;28;20025;-59
2023/05/14 09:39:33;;;;;;;0.20;0.20;;;;;;;21.36;30.27;101185.56;5065807;28;20044;-59
2023/05/14 09:41:59;;;;;;;0.40;0.40;;;;;;;21.54;30.00;101176.88;5065815;28;20112;-59
2023/05/14 09:44:24;;;;;;;0.88;0.88;;;;;;;21.41;30.08;101184.44;5065692;28;20059;-60
2023/05/14 09:46:51;;;;;;;0.98;0.98;;;;;;;21.25;30.38;101183.34;5065890;28;20029;-59
2023/05/14 09:49:17;;;;;;;0.10;0.10;;;;;;;21.08;30.84;101169.06;5065551;28;20021;-59
2023/05/14 09:51:42;;;;;;;0.20;0.20;;;;;;;21.04;31.34;101176.25;5065773;28;20051;-57
2023/05/14 09:54:08;;;;;;;0.75;0.75;;;;;;;21.44;31.09;101162.31;5065587;28;20021;-60
2023/05/14 09:56:35;;;;;;;0.20;0.20;;;;;;;22.24;30.48;101158.91;5064917;28;20020;-60
2023/05/14 09:59:01;;;;;;;0.40;0.40;;;;;;;23.47;28.70;101161.03;5065447;28;20029;-59
2023/05/14 10:01:28;;;;;;;0.13;0.13;;;;;;;23.30;28.50;101155.69;5065439;28;20021;-58
2023/05/14 10:03:54;;;;;;;0.20;0.20;;;;;;;23.26;29.12;101155.84;5065481;28;20036;-60
2023/05/14 10:06:27;;;;;;;0.20;0.20;;;;;;;23.28;29.12;101154.00;5065633;28;20024;-60
2023/05/14 10:08:55;;;;;;;1.48;1.48;;;;;;;23.39;29.09;101144.66;5065421;28;20022;-58
2023/05/14 10:11:25;;;;;;;0.17;0.17;;;;;;;24.59;28.52;101151.63;5065370;28;20051;-59
2023/05/14 10:14:07;;;;;;;0.30;0.30;;;;;;;26.26;26.71;101142.78;5065439;28;20021;-58
2023/05/14 10:16:36;;;;;;;0.10;0.10;;;;;;;27.07;25.30;101141.16;5065540;28;20032;-59
2023/05/14 10:19:10;;;;;;;0.10;0.10;;;;;;;26.82;25.50;101136.59;5065210;28;20017;-59
2023/05/14 10:21:37;;;;;;;5.15;1.05;;;;;;;26.52;25.94;101137.66;5065201;28;20021;-60
2023/05/14 10:24:06;;;;;;;0.10;0.10;;;;;;;26.58;25.49;101126.59;5065101;28;20087;-59
2023/05/14 10:26:38;;;;;;;0.10;0.10;;;;;;;26.19;25.81;101118.38;5065465;28;20415;-60
2023/05/14 10:29:08;;;;;;;0.10;0.10;;;;;;;25.90;25.78;101119.25;5064877;28;20033;-59
2023/05/14 10:34:39;;;;;;;0.30;0.30;;;;;;;25.03;26.82;101121.78;5063136;28;20053;-62
2023/05/14 10:37:14;;;;;;;0.20;0.20;;;;;;;25.25;25.50;101124.91;5084433;22;20113;-63
2023/05/14 10:39:42;;;;;;;0.20;0.20;;;;;;;25.33;23.96;101116.47;5065129;28;20047;-58
2023/05/14 10:42:15;;;;;;;0.10;0.10;;;;;;;25.47;23.41;101110.31;5070996;22;20053;-63
2023/05/14 10:44:54;;;;;;;0.15;0.15;;;;;;;25.18;23.50;101112.03;5073217;23;20012;-64
2023/05/14 10:47:20;;;;;;;0.50;0.50;;;;;;;25.28;23.16;101107.03;5063036;22;20049;-59
2023/05/14 10:49:48;;;;;;;1.42;1.35;;;;;;;24.72;23.20;101104.00;5084409;22;20381;-59
2023/05/14 10:52:17;;;;;;;0.22;0.22;;;;;;;24.18;23.91;101115.84;5072395;22;20030;-63
2023/05/14 10:54:53;;;;;;;0.20;0.20;;;;;;;23.68;24.54;101101.69;5084657;28;20127;-64
2023/05/14 10:57:20;;;;;;;0.10;0.10;;;;;;;23.49;24.65;101115.91;5084847;28;20020;-65
2023/05/14 10:59:48;;;;;;;0.20;0.20;;;;;;;23.22;24.96;101119.00;5073694;22;20207;-60
2023/05/14 11:02:25;;;;;;;1.00;1.00;;;;;;;22.85;25.24;101114.63;5085376;22;20136;-64
2023/05/14 11:05:02;;;;;;;0.82;0.82;;;;;;;22.65;25.91;101107.66;5064907;28;20025;-62
2023/05/14 11:10:05;;;;;;;0.20;0.20;;;;;;;22.39;26.29;101089.44;5095122;22;20075;-58
2023/05/14 11:12:39;;;;;;;0.20;0.20;;;;;;;22.16;26.84;101091.38;5069012;28;20029;-60
2023/05/14 11:15:10;;;;;;;0.15;0.15;;;;;;;22.35;26.62;101093.13;5081218;22;20530;-62
2023/05/14 11:17:36;;;;;;;0.40;0.40;;;;;;;22.36;26.61;101097.53;5083256;22;20045;-58
2023/05/14 11:20:02;;;;;;;0.30;0.30;;;;;;;22.28;26.64;101091.72;5067850;28;20040;-59
2023/05/14 11:22:27;;;;;;;0.20;0.20;;;;;;;22.41;26.05;101071.69;5081487;22;20052;-58
2023/05/14 11:24:53;;;;;;;0.20;0.20;;;;;;;22.15;26.88;101067.66;5074655;22;20057;-61
2023/05/14 11:27:20;;;;;;;0.20;0.20;;;;;;;22.22;26.96;101078.78;5087555;28;20089;-66